Time;durP1;ratioP1;P1;durP2;ratioP2;P2;SDS_P1;SDS_P2;PMS_P1;PMS_P2;Temp;Humidity;BMP_temperature;BMP_pressure;BME280_temperature;BME280_humidity;BME280_pressure;Samples;Min_cycle;Max_cycle;Signal;HPM_P1;HPM_P2
2021/06/15 00:00:42;;;;;;;25.75;16.02;;;;;;;;;;4986790;28;20061;-71
2021/06/15 00:03:08;;;;;;;28.40;15.07;;;;;;;;;;4990188;28;20092;-71
2021/06/15 00:05:34;;;;;;;24.48;13.55;;;;;;;;;;5008697;28;20033;-70
2021/06/15 00:08:00;;;;;;;24.52;14.00;;;;;;;;;;4994901;28;20107;-71
2021/06/15 00:10:27;;;;;;;19.88;12.77;;;;;;;;;;4991055;28;20420;-70
2021/06/15 00:12:54;;;;;;;18.15;11.38;;;;;;;;;;4992625;28;20026;-70
2021/06/15 00:15:20;;;;;;;17.05;11.60;;;;;;;;;;4999407;28;20501;-70
2021/06/15 00:17:47;;;;;;;22.15;11.10;;;;;;;;;;5005695;28;20521;-71
2021/06/15 00:20:14;;;;;;;15.45;9.70;;;;;;;;;;4997132;28;20032;-71
2021/06/15 00:22:40;;;;;;;19.52;11.32;;;;;;;;;;5001844;28;20437;-70
2021/06/15 00:25:07;;;;;;;21.40;9.23;;;;;;;;;;5002060;28;20026;-71
2021/06/15 00:27:33;;;;;;;15.48;8.60;;;;;;;;;;4994645;28;20156;-70
2021/06/15 00:29:59;;;;;;;15.13;8.82;;;;;;;;;;5007910;28;20030;-71
2021/06/15 00:32:27;;;;;;;18.25;9.90;;;;;;;;;;4989535;28;20026;-70
2021/06/15 00:34:53;;;;;;;20.02;8.85;;;;;;;;;;4991504;28;20270;-70
2021/06/15 00:37:19;;;;;;;14.95;9.27;;;;;;;;;;4980432;28;20033;-70
2021/06/15 00:39:47;;;;;;;14.30;8.57;;;;;;;;;;5001126;28;20086;-70
2021/06/15 00:42:13;;;;;;;16.65;10.00;;;;;;;;;;4991958;28;20038;-70
2021/06/15 00:44:39;;;;;;;18.17;11.50;;;;;;;;;;4988121;28;20038;-70
2021/06/15 00:47:05;;;;;;;32.42;18.90;;;;;;;;;;4987844;28;20087;-69
2021/06/15 00:49:32;;;;;;;34.47;23.90;;;;;;;;;;4981739;28;20015;-71
2021/06/15 00:51:58;;;;;;;36.05;25.35;;;;;;;;;;4988274;28;20497;-70
2021/06/15 00:54:25;;;;;;;34.78;22.65;;;;;;;;;;4992042;28;20010;-70
2021/06/15 00:56:51;;;;;;;36.15;23.85;;;;;;;;;;5004665;28;20026;-70
2021/06/15 00:59:18;;;;;;;35.65;22.90;;;;;;;;;;4991659;28;20382;-70
2021/06/15 01:01:44;;;;;;;36.60;22.70;;;;;;;;;;4986670;28;20034;-70
2021/06/15 01:04:11;;;;;;;39.47;23.08;;;;;;;;;;4987899;28;20096;-70
2021/06/15 01:06:37;;;;;;;37.75;23.17;;;;;;;;;;4987008;28;20127;-70
2021/06/15 01:09:06;;;;;;;34.83;22.98;;;;;;;;;;4987131;28;20031;-71
2021/06/15 01:11:52;;;;;;;34.55;20.23;;;;;;;;;;4987024;28;20050;-70
2021/06/15 01:14:18;;;;;;;42.08;21.63;;;;;;;;;;4987750;28;20698;-71
2021/06/15 01:17:02;;;;;;;37.05;21.55;;;;;;;;;;5002256;28;20026;-70
2021/06/15 01:19:28;;;;;;;37.97;23.65;;;;;;;;;;4987700;28;20084;-71
2021/06/15 01:22:07;;;;;;;35.42;21.58;;;;;;;;;;4989596;28;20022;-70
2021/06/15 01:24:35;;;;;;;35.45;21.23;;;;;;;;;;4987637;28;20625;-71
2021/06/15 01:27:01;;;;;;;30.75;21.23;;;;;;;;;;4988359;28;20041;-70
2021/06/15 01:29:30;;;;;;;39.00;22.02;;;;;;;;;;4992430;28;20030;-71
2021/06/15 01:32:03;;;;;;;34.75;21.48;;;;;;;;;;4983784;28;20110;-70
2021/06/15 01:34:34;;;;;;;41.03;23.33;;;;;;;;;;4991236;28;20511;-71
2021/06/15 01:37:15;;;;;;;34.55;19.83;;;;;;;;;;4992509;28;20023;-71
2021/06/15 01:39:53;;;;;;;36.25;22.95;;;;;;;;;;4996689;28;20043;-71
2021/06/15 01:42:29;;;;;;;31.92;19.67;;;;;;;;;;4983500;28;20084;-71
2021/06/15 01:44:59;;;;;;;41.70;21.38;;;;;;;;;;4996339;28;20034;-71
2021/06/15 01:47:30;;;;;;;38.72;21.52;;;;;;;;;;5000398;28;20164;-70
2021/06/15 01:49:59;;;;;;;38.75;21.70;;;;;;;;;;4989576;28;20022;-71
2021/06/15 01:52:32;;;;;;;43.33;22.05;;;;;;;;;;4991068;28;20082;-71
2021/06/15 01:54:58;;;;;;;35.72;20.90;;;;;;;;;;4986803;28;20105;-69
2021/06/15 01:57:25;;;;;;;39.97;23.77;;;;;;;;;;4997010;28;20034;-70
2021/06/15 01:59:53;;;;;;;42.05;22.45;;;;;;;;;;4990738;28;20405;-71
2021/06/15 02:02:19;;;;;;;41.70;21.60;;;;;;;;;;4999636;28;20022;-71
2021/06/15 02:04:48;;;;;;;43.70;22.45;;;;;;;;;;4999215;28;20022;-72
2021/06/15 02:07:29;;;;;;;38.95;20.98;;;;;;;;;;5000570;28;20030;-72
2021/06/15 02:09:57;;;;;;;35.78;16.55;;;;;;;;;;4995687;28;20034;-69
2021/06/15 02:12:26;;;;;;;28.40;13.85;;;;;;;;;;5000522;28;20030;-72
2021/06/15 02:14:53;;;;;;;23.00;13.07;;;;;;;;;;5001051;28;20030;-70
2021/06/15 02:17:22;;;;;;;27.55;13.88;;;;;;;;;;5002125;28;20520;-71
2021/06/15 02:19:48;;;;;;;27.00;12.48;;;;;;;;;;4990363;28;20117;-71
2021/06/15 02:22:15;;;;;;;23.30;12.18;;;;;;;;;;4994057;28;20075;-73
2021/06/15 02:24:56;;;;;;;20.88;11.02;;;;;;;;;;4993423;28;20053;-71
2021/06/15 02:27:23;;;;;;;26.92;10.95;;;;;;;;;;4985234;28;20023;-72
2021/06/15 02:29:51;;;;;;;21.13;9.30;;;;;;;;;;4991772;28;20027;-71
2021/06/15 02:32:21;;;;;;;25.45;10.45;;;;;;;;;;5006285;28;20030;-71
2021/06/15 02:34:49;;;;;;;27.30;11.50;;;;;;;;;;4993333;28;20081;-72
2021/06/15 02:37:23;;;;;;;18.33;10.02;;;;;;;;;;5002019;28;20039;-71
2021/06/15 02:39:49;;;;;;;27.77;9.98;;;;;;;;;;4988573;28;20095;-71
2021/06/15 02:42:17;;;;;;;28.70;11.60;;;;;;;;;;4998273;28;20026;-71
2021/06/15 02:44:45;;;;;;;22.05;10.20;;;;;;;;;;4994847;28;20030;-72
2021/06/15 02:47:12;;;;;;;20.25;10.52;;;;;;;;;;5003844;28;20025;-72
2021/06/15 02:49:42;;;;;;;18.02;8.32;;;;;;;;;;4989869;28;20500;-71
2021/06/15 02:52:13;;;;;;;18.90;9.90;;;;;;;;;;4991309;28;20022;-71
2021/06/15 02:54:43;;;;;;;22.67;9.77;;;;;;;;;;4992595;28;20058;-71
2021/06/15 02:57:10;;;;;;;17.77;9.57;;;;;;;;;;4986546;28;20033;-72
2021/06/15 02:59:36;;;;;;;19.02;9.68;;;;;;;;;;4985489;28;20030;-71
2021/06/15 03:02:03;;;;;;;21.88;9.82;;;;;;;;;;5002723;28;20026;-69
2021/06/15 03:04:29;;;;;;;24.42;11.15;;;;;;;;;;4990655;28;20566;-71
2021/06/15 03:06:55;;;;;;;24.83;12.05;;;;;;;;;;4995382;28;20056;-71
2021/06/15 03:09:21;;;;;;;27.80;13.05;;;;;;;;;;4992411;28;20097;-71
2021/06/15 03:12:06;;;;;;;26.25;12.45;;;;;;;;;;4997096;28;20115;-71
2021/06/15 03:14:32;;;;;;;26.83;11.70;;;;;;;;;;4997399;28;20026;-71
2021/06/15 03:17:00;;;;;;;27.83;12.80;;;;;;;;;;5001854;28;20034;-71
2021/06/15 03:19:37;;;;;;;28.00;12.40;;;;;;;;;;4996438;28;20029;-71
2021/06/15 03:22:06;;;;;;;20.63;10.88;;;;;;;;;;4987783;28;20099;-71
2021/06/15 03:24:33;;;;;;;23.17;12.18;;;;;;;;;;4996683;28;20050;-72
2021/06/15 03:27:06;;;;;;;21.63;10.82;;;;;;;;;;4980483;28;20075;-70
2021/06/15 03:29:34;;;;;;;22.02;10.65;;;;;;;;;;4984076;28;20041;-70
2021/06/15 03:32:03;;;;;;;29.25;13.25;;;;;;;;;;5008236;28;20018;-71
2021/06/15 03:34:30;;;;;;;26.55;11.13;;;;;;;;;;4992407;28;20022;-71
2021/06/15 03:36:57;;;;;;;23.10;11.43;;;;;;;;;;5000327;28;20033;-71
2021/06/15 03:39:24;;;;;;;26.00;12.20;;;;;;;;;;4995038;28;20022;-71
2021/06/15 03:41:52;;;;;;;27.45;13.98;;;;;;;;;;4988824;28;20117;-71
2021/06/15 03:44:20;;;;;;;30.67;12.77;;;;;;;;;;4986333;28;20040;-71
2021/06/15 03:46:49;;;;;;;27.83;12.60;;;;;;;;;;4989702;28;20565;-71
2021/06/15 03:49:16;;;;;;;26.25;14.13;;;;;;;;;;4996544;28;20121;-70
2021/06/15 03:51:47;;;;;;;28.17;12.23;;;;;;;;;;5001946;28;20095;-71
2021/06/15 03:54:15;;;;;;;20.17;10.88;;;;;;;;;;4987070;28;20027;-70
2021/06/15 03:56:46;;;;;;;24.40;10.23;;;;;;;;;;4991174;28;20038;-71
2021/06/15 03:59:14;;;;;;;17.85;8.90;;;;;;;;;;5000148;28;20026;-71
2021/06/15 04:01:41;;;;;;;25.95;10.05;;;;;;;;;;4990404;28;20080;-71
2021/06/15 04:04:12;;;;;;;19.85;8.98;;;;;;;;;;4992818;28;20065;-70
2021/06/15 04:06:41;;;;;;;22.52;9.23;;;;;;;;;;4989231;28;20181;-70
2021/06/15 04:09:08;;;;;;;18.60;8.88;;;;;;;;;;4995763;28;20033;-70
2021/06/15 04:11:36;;;;;;;21.10;8.65;;;;;;;;;;4988172;28;20156;-70
2021/06/15 04:14:05;;;;;;;15.60;8.13;;;;;;;;;;4986925;28;20045;-71
2021/06/15 04:16:31;;;;;;;21.30;8.10;;;;;;;;;;4985608;28;20038;-71
2021/06/15 04:18:59;;;;;;;16.63;6.95;;;;;;;;;;4991128;28;20030;-71
2021/06/15 04:21:25;;;;;;;19.90;7.68;;;;;;;;;;4987187;28;20073;-71
2021/06/15 04:23:56;;;;;;;16.17;6.32;;;;;;;;;;4993983;28;20057;-69
2021/06/15 04:26:22;;;;;;;16.77;6.87;;;;;;;;;;4990454;28;20027;-70
2021/06/15 04:28:48;;;;;;;16.88;6.55;;;;;;;;;;4988549;28;20075;-70
2021/06/15 04:31:16;;;;;;;14.25;7.18;;;;;;;;;;4987498;28;20560;-70
2021/06/15 04:33:45;;;;;;;16.73;7.00;;;;;;;;;;4990918;28;20026;-68
2021/06/15 04:36:12;;;;;;;15.15;7.93;;;;;;;;;;4989960;28;20145;-70
2021/06/15 04:38:42;;;;;;;19.17;8.05;;;;;;;;;;4989602;28;20503;-69
2021/06/15 04:41:13;;;;;;;17.10;8.02;;;;;;;;;;4989845;28;20083;-70
2021/06/15 04:43:58;;;;;;;11.35;6.35;;;;;;;;;;4985764;28;20092;-70
2021/06/15 04:46:27;;;;;;;14.07;6.88;;;;;;;;;;4982802;28;20498;-70
2021/06/15 04:49:01;;;;;;;19.45;6.75;;;;;;;;;;4978372;28;20035;-69
2021/06/15 04:51:27;;;;;;;17.02;6.47;;;;;;;;;;4977494;28;20023;-70
2021/06/15 04:54:03;;;;;;;11.35;6.20;;;;;;;;;;4977667;28;20045;-70
2021/06/15 04:56:29;;;;;;;13.60;5.85;;;;;;;;;;4981518;28;20031;-70
2021/06/15 04:58:56;;;;;;;12.80;5.68;;;;;;;;;;4979289;28;20117;-70
2021/06/15 05:01:22;;;;;;;15.75;6.03;;;;;;;;;;4984796;28;20117;-70
2021/06/15 05:03:50;;;;;;;12.95;6.65;;;;;;;;;;4986011;28;20035;-70
2021/06/15 05:06:16;;;;;;;16.35;5.97;;;;;;;;;;4990298;28;20027;-70
2021/06/15 05:08:46;;;;;;;12.02;5.22;;;;;;;;;;4989715;28;20058;-70
2021/06/15 05:11:12;;;;;;;13.32;5.47;;;;;;;;;;4988886;28;20018;-70
2021/06/15 05:13:43;;;;;;;12.30;4.50;;;;;;;;;;4982174;28;20437;-69
2021/06/15 05:16:09;;;;;;;11.48;4.18;;;;;;;;;;4982424;28;20023;-70
2021/06/15 05:18:37;;;;;;;9.43;3.97;;;;;;;;;;5002703;28;20421;-69
2021/06/15 05:21:07;;;;;;;14.05;4.38;;;;;;;;;;4993590;28;20532;-70
2021/06/15 05:23:56;;;;;;;9.10;3.40;;;;;;;;;;4989336;28;20080;-69
2021/06/15 05:26:22;;;;;;;11.45;3.30;;;;;;;;;;4994592;28;20072;-70
2021/06/15 05:28:48;;;;;;;10.18;3.25;;;;;;;;;;4990503;28;20041;-69
2021/06/15 05:31:14;;;;;;;10.63;3.92;;;;;;;;;;5000889;28;20035;-69
2021/06/15 05:33:40;;;;;;;9.07;3.40;;;;;;;;;;4990118;28;20053;-69
2021/06/15 05:36:06;;;;;;;11.23;3.38;;;;;;;;;;4994078;28;20037;-70
2021/06/15 05:38:32;;;;;;;10.95;3.53;;;;;;;;;;4993849;28;20023;-70
2021/06/15 05:40:59;;;;;;;10.80;2.83;;;;;;;;;;4985398;28;20184;-69
2021/06/15 05:43:25;;;;;;;9.10;2.83;;;;;;;;;;4991600;28;20034;-70
2021/06/15 05:45:51;;;;;;;7.22;3.33;;;;;;;;;;4992530;28;20026;-69
2021/06/15 05:48:17;;;;;;;8.43;3.35;;;;;;;;;;4989065;28;20057;-69
2021/06/15 05:50:43;;;;;;;13.77;4.10;;;;;;;;;;4987954;28;20411;-70
2021/06/15 05:53:10;;;;;;;12.18;3.47;;;;;;;;;;4989552;28;20055;-69
2021/06/15 05:55:36;;;;;;;14.30;3.38;;;;;;;;;;4989919;28;20512;-70
2021/06/15 05:58:02;;;;;;;11.15;3.30;;;;;;;;;;4988023;28;20030;-70
2021/06/15 06:00:28;;;;;;;11.77;3.35;;;;;;;;;;4985650;28;20034;-69
2021/06/15 06:02:54;;;;;;;12.00;3.95;;;;;;;;;;4986319;28;20050;-69
2021/06/15 06:08:07;;;;;;;13.07;3.53;;;;;;;;;;4977195;28;20077;-69
2021/06/15 06:10:33;;;;;;;6.32;3.70;;;;;;;;;;4975926;28;20114;-69
2021/06/15 06:12:59;;;;;;;12.43;4.00;;;;;;;;;;4984943;28;20022;-69
2021/06/15 06:15:26;;;;;;;12.30;3.92;;;;;;;;;;4986727;28;20527;-68
2021/06/15 06:17:52;;;;;;;9.55;3.85;;;;;;;;;;4979779;28;20441;-70
2021/06/15 06:20:18;;;;;;;10.82;3.20;;;;;;;;;;4977544;28;20113;-70
2021/06/15 06:22:44;;;;;;;9.23;3.00;;;;;;;;;;4983232;28;20096;-70
2021/06/15 06:25:13;;;;;;;9.63;3.10;;;;;;;;;;4979296;28;20026;-70
2021/06/15 06:27:39;;;;;;;10.57;2.88;;;;;;;;;;4988831;28;20010;-69
2021/06/15 06:30:06;;;;;;;12.20;3.10;;;;;;;;;;4988054;28;20023;-69
2021/06/15 06:32:32;;;;;;;10.20;2.78;;;;;;;;;;4989794;28;20477;-69
2021/06/15 06:35:00;;;;;;;12.10;3.00;;;;;;;;;;4988341;28;20050;-69
2021/06/15 06:37:26;;;;;;;11.13;2.70;;;;;;;;;;4995417;28;20022;-69
2021/06/15 06:39:52;;;;;;;9.10;2.92;;;;;;;;;;4989518;28;20038;-69
2021/06/15 06:42:19;;;;;;;11.73;3.30;;;;;;;;;;4987061;28;20045;-69
2021/06/15 06:44:45;;;;;;;11.57;3.80;;;;;;;;;;4989416;28;20023;-69
2021/06/15 06:47:11;;;;;;;10.70;3.50;;;;;;;;;;4987260;28;20118;-69
2021/06/15 06:49:37;;;;;;;7.68;2.92;;;;;;;;;;4977774;28;20034;-69
2021/06/15 06:52:04;;;;;;;8.63;2.78;;;;;;;;;;4976632;28;20022;-70
2021/06/15 06:54:30;;;;;;;5.97;2.40;;;;;;;;;;4979539;28;20268;-70
2021/06/15 06:56:56;;;;;;;11.00;3.13;;;;;;;;;;4979423;28;20019;-68
2021/06/15 06:59:22;;;;;;;11.48;3.38;;;;;;;;;;4999877;28;20030;-68
2021/06/15 07:01:48;;;;;;;12.43;2.83;;;;;;;;;;4984190;28;20168;-69
2021/06/15 07:04:14;;;;;;;17.48;3.05;;;;;;;;;;4981518;28;20034;-69
2021/06/15 07:06:40;;;;;;;12.25;2.63;;;;;;;;;;4980921;28;20037;-69
2021/06/15 07:09:06;;;;;;;14.65;2.55;;;;;;;;;;5000840;28;20033;-69
2021/06/15 07:11:32;;;;;;;8.93;2.58;;;;;;;;;;5021478;28;20039;-69
2021/06/15 07:13:58;;;;;;;12.30;3.35;;;;;;;;;;5014370;28;20048;-69
2021/06/15 07:16:24;;;;;;;11.32;2.95;;;;;;;;;;5010333;28;20038;-69
2021/06/15 07:18:51;;;;;;;15.30;3.05;;;;;;;;;;4989155;28;20030;-68
2021/06/15 07:21:17;;;;;;;12.13;2.42;;;;;;;;;;4988084;28;20092;-69
2021/06/15 07:23:43;;;;;;;12.90;2.40;;;;;;;;;;4989274;28;20566;-68
2021/06/15 07:26:09;;;;;;;10.80;2.55;;;;;;;;;;4988885;28;20481;-68
2021/06/15 07:28:35;;;;;;;8.43;2.60;;;;;;;;;;4988924;28;20109;-67
2021/06/15 07:31:02;;;;;;;15.40;2.97;;;;;;;;;;4986538;28;20129;-67
2021/06/15 07:33:28;;;;;;;12.13;2.30;;;;;;;;;;4989157;28;20268;-68
2021/06/15 07:35:54;;;;;;;12.90;2.65;;;;;;;;;;4995198;28;20065;-68
2021/06/15 07:38:20;;;;;;;15.02;2.53;;;;;;;;;;4988494;28;20030;-68
2021/06/15 07:40:46;;;;;;;9.40;1.98;;;;;;;;;;4982417;28;20030;-67
2021/06/15 07:43:13;;;;;;;8.60;1.60;;;;;;;;;;4983772;28;20099;-67
2021/06/15 07:45:39;;;;;;;12.88;2.75;;;;;;;;;;4989064;28;20019;-67
2021/06/15 07:48:05;;;;;;;7.82;2.13;;;;;;;;;;4995880;28;20409;-68
2021/06/15 07:50:32;;;;;;;13.90;1.95;;;;;;;;;;4988212;28;20250;-67
2021/06/15 07:52:58;;;;;;;7.72;1.83;;;;;;;;;;4988360;28;20529;-67
2021/06/15 07:55:24;;;;;;;11.50;2.08;;;;;;;;;;4988848;28;20125;-67
2021/06/15 07:57:50;;;;;;;13.68;2.28;;;;;;;;;;4987999;28;20029;-68
2021/06/15 08:00:17;;;;;;;18.52;2.72;;;;;;;;;;4985583;28;20356;-67
2021/06/15 08:02:44;;;;;;;7.85;1.95;;;;;;;;;;4995900;28;20026;-68
2021/06/15 08:05:10;;;;;;;7.70;1.77;;;;;;;;;;4988027;28;20413;-67
2021/06/15 08:07:36;;;;;;;8.50;2.25;;;;;;;;;;4978740;28;20026;-66
2021/06/15 08:10:03;;;;;;;9.90;1.95;;;;;;;;;;4972667;28;20033;-67
2021/06/15 08:12:29;;;;;;;9.27;2.08;;;;;;;;;;4986153;28;20095;-67
2021/06/15 08:14:55;;;;;;;9.30;1.98;;;;;;;;;;4982062;28;20520;-67
2021/06/15 08:17:22;;;;;;;17.80;2.33;;;;;;;;;;4982462;28;20034;-67
2021/06/15 08:19:48;;;;;;;9.60;1.75;;;;;;;;;;4974515;28;20118;-67
2021/06/15 08:22:14;;;;;;;8.85;1.70;;;;;;;;;;4977278;28;20027;-67
2021/06/15 08:24:40;;;;;;;10.18;2.15;;;;;;;;;;4985167;28;20333;-67
2021/06/15 08:27:06;;;;;;;11.40;1.95;;;;;;;;;;4980662;28;20050;-67
2021/06/15 08:29:32;;;;;;;8.43;1.67;;;;;;;;;;4980248;28;20023;-68
2021/06/15 08:31:58;;;;;;;16.08;2.72;;;;;;;;;;4982326;28;20023;-67
2021/06/15 08:34:24;;;;;;;10.68;1.92;;;;;;;;;;4980486;28;20034;-67
2021/06/15 08:36:50;;;;;;;12.55;2.17;;;;;;;;;;4986027;28;20026;-68
2021/06/15 08:39:16;;;;;;;8.60;2.17;;;;;;;;;;4982803;28;20042;-66
2021/06/15 08:41:42;;;;;;;15.55;3.38;;;;;;;;;;4985570;28;20099;-66
2021/06/15 08:44:09;;;;;;;12.57;2.10;;;;;;;;;;4989331;28;20031;-67
2021/06/15 08:46:35;;;;;;;8.93;2.35;;;;;;;;;;4987646;28;20075;-67
2021/06/15 08:49:02;;;;;;;12.05;2.25;;;;;;;;;;4983836;28;20022;-67
2021/06/15 08:51:28;;;;;;;16.95;2.95;;;;;;;;;;4981061;28;20487;-67
2021/06/15 08:54:04;;;;;;;16.55;2.60;;;;;;;;;;4989858;28;20031;-67
2021/06/15 08:56:32;;;;;;;17.92;2.85;;;;;;;;;;4988810;28;20030;-67
2021/06/15 08:59:11;;;;;;;11.00;1.70;;;;;;;;;;4983699;28;20050;-67
2021/06/15 09:01:37;;;;;;;10.35;2.05;;;;;;;;;;4976601;28;20225;-68
2021/06/15 09:04:03;;;;;;;10.10;2.30;;;;;;;;;;4996337;28;20126;-67
2021/06/15 09:06:31;;;;;;;12.43;3.65;;;;;;;;;;4990498;28;20481;-66
2021/06/15 09:08:58;;;;;;;17.33;2.38;;;;;;;;;;4988740;28;20585;-67
2021/06/15 09:11:25;;;;;;;10.38;2.92;;;;;;;;;;4987190;28;20022;-66
2021/06/15 09:13:51;;;;;;;10.80;1.85;;;;;;;;;;5004266;28;20034;-68
2021/06/15 09:16:27;;;;;;;11.60;2.28;;;;;;;;;;4989418;28;20033;-66
2021/06/15 09:18:55;;;;;;;11.25;2.72;;;;;;;;;;4994396;28;20065;-67
2021/06/15 09:21:31;;;;;;;16.63;2.80;;;;;;;;;;4977931;28;20034;-66
2021/06/15 09:24:09;;;;;;;13.98;2.20;;;;;;;;;;4989896;28;20525;-67
2021/06/15 09:26:52;;;;;;;13.55;2.83;;;;;;;;;;4990706;28;20035;-67
2021/06/15 09:29:18;;;;;;;16.58;3.25;;;;;;;;;;4989373;28;20061;-66
2021/06/15 09:31:54;;;;;;;7.10;2.10;;;;;;;;;;4987282;28;20041;-68
2021/06/15 09:34:21;;;;;;;11.88;2.53;;;;;;;;;;4991036;28;20030;-67
2021/06/15 09:36:47;;;;;;;11.40;2.30;;;;;;;;;;4990462;28;20026;-67
2021/06/15 09:39:13;;;;;;;10.48;2.22;;;;;;;;;;4982191;28;20035;-67
2021/06/15 09:41:44;;;;;;;12.45;2.72;;;;;;;;;;4979613;28;20454;-66
2021/06/15 09:44:13;;;;;;;13.13;3.08;;;;;;;;;;4990463;28;20030;-67
2021/06/15 09:46:46;;;;;;;16.88;2.55;;;;;;;;;;4990169;28;20034;-67
2021/06/15 09:49:13;;;;;;;16.67;3.03;;;;;;;;;;4976829;28;20183;-67
2021/06/15 09:51:42;;;;;;;11.18;3.35;;;;;;;;;;4986756;28;20018;-67
2021/06/15 09:54:08;;;;;;;10.60;2.15;;;;;;;;;;4989405;28;20493;-68
2021/06/15 09:56:40;;;;;;;14.30;2.70;;;;;;;;;;4990194;28;20034;-66
2021/06/15 09:59:06;;;;;;;14.70;3.25;;;;;;;;;;4990767;28;20054;-67
2021/06/15 10:01:35;;;;;;;18.52;3.17;;;;;;;;;;4991822;28;20467;-67
2021/06/15 10:04:21;;;;;;;14.95;2.63;;;;;;;;;;5004031;28;20038;-67
2021/06/15 10:06:48;;;;;;;17.58;2.60;;;;;;;;;;4990606;28;20501;-67
2021/06/15 10:09:23;;;;;;;8.30;2.28;;;;;;;;;;4990446;28;20426;-67
2021/06/15 10:11:50;;;;;;;13.30;2.65;;;;;;;;;;4987545;28;20152;-66
2021/06/15 10:14:17;;;;;;;11.52;2.58;;;;;;;;;;4989982;28;20416;-67
2021/06/15 10:16:43;;;;;;;10.52;2.15;;;;;;;;;;4977039;28;20023;-67
2021/06/15 10:19:10;;;;;;;12.82;2.63;;;;;;;;;;4983687;28;20030;-67
2021/06/15 10:21:37;;;;;;;8.18;2.15;;;;;;;;;;4987606;28;20113;-67
2021/06/15 10:24:07;;;;;;;12.65;2.22;;;;;;;;;;4974091;28;20023;-67
2021/06/15 10:26:33;;;;;;;11.55;2.10;;;;;;;;;;4971361;28;20023;-67
2021/06/15 10:29:00;;;;;;;12.20;2.92;;;;;;;;;;4970759;28;20026;-68
2021/06/15 10:31:27;;;;;;;17.08;2.35;;;;;;;;;;4970019;28;20046;-67
2021/06/15 10:33:53;;;;;;;10.30;2.20;;;;;;;;;;4987988;28;20493;-68
2021/06/15 10:36:35;;;;;;;14.65;3.05;;;;;;;;;;4989735;28;20033;-67
2021/06/15 10:39:02;;;;;;;10.93;2.90;;;;;;;;;;4990033;28;20027;-66
2021/06/15 10:41:28;;;;;;;15.63;3.47;;;;;;;;;;4987474;28;20030;-69
2021/06/15 10:43:55;;;;;;;11.63;2.38;;;;;;;;;;4988392;28;20026;-66
2021/06/15 10:46:21;;;;;;;9.68;2.42;;;;;;;;;;4990005;28;20025;-67
2021/06/15 10:48:54;;;;;;;11.60;2.20;;;;;;;;;;4990100;28;20121;-67
2021/06/15 10:51:27;;;;;;;15.70;3.15;;;;;;;;;;4987108;28;20101;-67
2021/06/15 10:53:53;;;;;;;12.40;3.03;;;;;;;;;;4989559;28;20018;-67
2021/06/15 10:56:23;;;;;;;12.15;2.45;;;;;;;;;;4989844;28;20489;-67
2021/06/15 10:59:01;;;;;;;12.85;2.13;;;;;;;;;;4978697;28;20390;-66
2021/06/15 11:01:32;;;;;;;15.73;2.38;;;;;;;;;;4970651;28;20027;-67
2021/06/15 11:04:01;;;;;;;13.38;2.03;;;;;;;;;;5008546;28;20057;-67
2021/06/15 11:06:27;;;;;;;21.27;2.30;;;;;;;;;;4991345;28;20030;-67
2021/06/15 11:09:14;;;;;;;12.50;2.35;;;;;;;;;;4989434;28;20137;-67
2021/06/15 11:11:40;;;;;;;11.85;2.63;;;;;;;;;;5000948;28;20034;-67
2021/06/15 11:14:08;;;;;;;13.63;2.50;;;;;;;;;;4987197;28;20554;-66
2021/06/15 11:16:40;;;;;;;14.07;3.13;;;;;;;;;;4989545;28;20034;-66
2021/06/15 11:19:13;;;;;;;16.73;3.22;;;;;;;;;;4994857;28;20079;-66
2021/06/15 11:21:45;;;;;;;13.18;2.67;;;;;;;;;;4986935;28;20026;-67
2021/06/15 11:24:31;;;;;;;14.50;2.47;;;;;;;;;;4989007;28;20101;-67
2021/06/15 11:26:57;;;;;;;8.00;2.35;;;;;;;;;;4988069;28;20038;-67
2021/06/15 11:29:29;;;;;;;9.15;2.72;;;;;;;;;;4989266;28;20509;-67
2021/06/15 11:31:54;;;;;;;;;;;;;;;;;;4986940;28;20256;-67
2021/06/15 11:34:21;;;;;;;13.77;3.10;;;;;;;;;;4988455;28;19948;-67
2021/06/15 11:36:54;;;;;;;17.45;3.42;;;;;;;;;;4989433;28;20335;-67
2021/06/15 11:39:23;;;;;;;11.23;3.63;;;;;;;;;;4989082;28;20026;-67
2021/06/15 11:42:08;;;;;;;12.15;3.22;;;;;;;;;;4986318;28;20121;-67
2021/06/15 11:44:48;;;;;;;13.07;2.90;;;;;;;;;;4988929;28;20039;-67
2021/06/15 11:47:33;;;;;;;13.13;2.28;;;;;;;;;;4989079;28;20046;-66
2021/06/15 11:50:25;;;;;;;19.65;3.13;;;;;;;;;;4988302;28;20034;-66
2021/06/15 11:52:56;;;;;;;10.23;2.30;;;;;;;;;;4979789;28;20038;-68
2021/06/15 11:55:27;;;;;;;14.02;2.42;;;;;;;;;;4989026;28;20041;-67
2021/06/15 11:58:01;;;;;;;14.95;2.50;;;;;;;;;;4986010;28;20049;-67
2021/06/15 12:00:29;;;;;;;13.98;2.35;;;;;;;;;;4966890;28;20100;-67
2021/06/15 12:03:21;;;;;;;12.25;2.50;;;;;;;;;;4994505;28;20420;-66
2021/06/15 12:05:49;;;;;;;13.60;3.38;;;;;;;;;;5003646;28;20045;-67
2021/06/15 12:08:16;;;;;;;9.35;2.55;;;;;;;;;;4988812;28;20027;-66
2021/06/15 12:10:43;;;;;;;11.50;2.15;;;;;;;;;;4985358;28;20402;-65
2021/06/15 12:13:13;;;;;;;16.27;3.45;;;;;;;;;;4987045;28;20124;-67
2021/06/15 12:15:43;;;;;;;11.95;3.00;;;;;;;;;;4988736;28;20011;-69
2021/06/15 12:18:21;;;;;;;14.02;3.08;;;;;;;;;;4988449;28;20457;-67
2021/06/15 12:20:49;;;;;;;12.07;2.70;;;;;;;;;;4981455;28;20022;-67
2021/06/15 12:23:26;;;;;;;13.50;3.08;;;;;;;;;;4988302;28;20050;-68
2021/06/15 12:25:53;;;;;;;17.05;3.28;;;;;;;;;;4988681;28;20029;-66
2021/06/15 12:28:20;;;;;;;24.13;3.83;;;;;;;;;;4988791;28;20117;-68
2021/06/15 12:30:46;;;;;;;10.38;3.30;;;;;;;;;;4985313;28;20027;-67
2021/06/15 12:33:13;;;;;;;16.98;3.53;;;;;;;;;;4987615;28;20037;-67
2021/06/15 12:35:39;;;;;;;14.85;3.10;;;;;;;;;;4988317;28;20030;-67
2021/06/15 12:38:09;;;;;;;14.52;2.65;;;;;;;;;;4988553;28;20022;-67
2021/06/15 12:40:36;;;;;;;11.82;2.63;;;;;;;;;;4985504;28;20026;-69
2021/06/15 12:43:03;;;;;;;9.68;2.35;;;;;;;;;;4988010;28;20027;-66
2021/06/15 12:45:33;;;;;;;10.68;2.63;;;;;;;;;;4988392;28;20042;-66
2021/06/15 12:48:00;;;;;;;13.98;2.08;;;;;;;;;;4988358;28;20057;-67
2021/06/15 12:50:27;;;;;;;11.85;2.88;;;;;;;;;;4985343;28;20019;-69
2021/06/15 12:53:04;;;;;;;14.93;3.17;;;;;;;;;;4988667;28;20515;-68
2021/06/15 12:55:30;;;;;;;11.82;2.75;;;;;;;;;;4989510;28;20040;-67
2021/06/15 12:57:59;;;;;;;14.70;3.15;;;;;;;;;;4987793;28;20081;-67
2021/06/15 13:00:26;;;;;;;15.13;3.30;;;;;;;;;;4985160;28;20525;-67
2021/06/15 13:03:05;;;;;;;12.30;2.65;;;;;;;;;;5001086;28;20049;-67
2021/06/15 13:05:32;;;;;;;11.13;2.78;;;;;;;;;;5007554;28;20026;-67
2021/06/15 13:07:58;;;;;;;13.15;3.17;;;;;;;;;;4996162;28;20030;-67
2021/06/15 13:10:25;;;;;;;11.27;3.00;;;;;;;;;;4985265;28;20014;-67
2021/06/15 13:12:52;;;;;;;15.10;2.80;;;;;;;;;;4988122;28;20504;-67
2021/06/15 13:15:22;;;;;;;11.90;2.58;;;;;;;;;;4987512;28;20109;-69
2021/06/15 13:17:55;;;;;;;15.02;3.22;;;;;;;;;;4988433;28;20030;-67
2021/06/15 13:20:22;;;;;;;11.25;2.47;;;;;;;;;;4990450;28;20027;-67
2021/06/15 13:22:48;;;;;;;14.27;2.75;;;;;;;;;;4988453;28;20027;-67
2021/06/15 13:25:15;;;;;;;16.48;4.70;;;;;;;;;;4991952;28;20030;-67
2021/06/15 13:30:09;;;;;;;14.77;3.17;;;;;;;;;;4989622;28;20030;-67
2021/06/15 13:32:36;;;;;;;13.43;3.78;;;;;;;;;;4989951;28;20043;-67
2021/06/15 13:35:10;;;;;;;9.98;2.42;;;;;;;;;;4979275;28;20033;-68
2021/06/15 13:37:37;;;;;;;11.57;3.10;;;;;;;;;;4971796;28;20038;-70
2021/06/15 13:40:05;;;;;;;9.98;3.30;;;;;;;;;;4985351;28;20058;-67
2021/06/15 13:42:32;;;;;;;14.05;2.42;;;;;;;;;;4988545;28;20527;-67
2021/06/15 13:45:06;;;;;;;10.23;2.42;;;;;;;;;;4987047;28;20464;-68
2021/06/15 13:47:32;;;;;;;14.27;2.80;;;;;;;;;;4991328;28;20018;-67
2021/06/15 13:49:58;;;;;;;9.48;2.25;;;;;;;;;;4989399;28;20023;-67
2021/06/15 13:52:24;;;;;;;10.98;3.13;;;;;;;;;;4987782;28;20490;-68
2021/06/15 13:54:50;;;;;;;13.50;2.13;;;;;;;;;;4989808;28;20030;-67
2021/06/15 13:57:16;;;;;;;11.00;2.60;;;;;;;;;;4990004;28;20019;-67
2021/06/15 13:59:42;;;;;;;13.75;2.75;;;;;;;;;;4983844;28;20388;-68
2021/06/15 14:02:08;;;;;;;10.88;2.80;;;;;;;;;;4987670;28;20019;-67
2021/06/15 14:04:34;;;;;;;8.80;2.42;;;;;;;;;;4988288;28;20054;-66
2021/06/15 14:07:00;;;;;;;11.23;2.45;;;;;;;;;;4991462;28;20026;-68
2021/06/15 14:09:27;;;;;;;12.00;3.13;;;;;;;;;;4990413;28;20029;-68
2021/06/15 14:11:53;;;;;;;11.20;2.67;;;;;;;;;;4987450;28;20038;-67
2021/06/15 14:14:19;;;;;;;6.90;1.98;;;;;;;;;;4990148;28;20038;-67
2021/06/15 14:16:45;;;;;;;10.65;2.47;;;;;;;;;;4990410;28;20034;-67
2021/06/15 14:19:11;;;;;;;11.18;2.20;;;;;;;;;;4990760;28;20060;-67
2021/06/15 14:21:37;;;;;;;11.00;2.70;;;;;;;;;;4987614;28;20031;-66
2021/06/15 14:24:06;;;;;;;10.75;2.67;;;;;;;;;;4987987;28;20034;-67
2021/06/15 14:26:32;;;;;;;11.15;3.63;;;;;;;;;;4987703;28;20027;-67
2021/06/15 14:28:58;;;;;;;20.65;2.60;;;;;;;;;;4989480;28;20041;-67
2021/06/15 14:31:24;;;;;;;12.82;2.15;;;;;;;;;;4987241;28;20083;-67
2021/06/15 14:33:50;;;;;;;11.35;3.05;;;;;;;;;;4987945;28;20030;-67
2021/06/15 14:36:16;;;;;;;15.05;3.20;;;;;;;;;;4988866;28;20038;-67
2021/06/15 14:38:42;;;;;;;10.68;2.97;;;;;;;;;;4988312;28;20566;-68
2021/06/15 14:41:08;;;;;;;12.38;2.65;;;;;;;;;;4988007;28;20034;-68